createdAt,value
2023-05-08T00:02:16.774Z,96368.72
2023-05-08T00:05:18.417Z,96369.06
2023-05-08T00:08:19.971Z,96374.00
2023-05-08T00:11:22.528Z,96370.66
2023-05-08T00:14:24.165Z,96366.66
2023-05-08T00:17:26.430Z,96372.69
2023-05-08T00:20:28.997Z,96376.41
2023-05-08T00:23:30.571Z,96375.56
2023-05-08T00:26:33.835Z,96377.44
2023-05-08T00:29:36.001Z,96373.06
2023-05-08T00:32:37.846Z,96373.06
2023-05-08T00:35:42.312Z,96369.53
2023-05-08T00:38:43.975Z,96366.19
2023-05-08T00:41:45.965Z,96373.25
2023-05-08T00:44:48.098Z,96380.13
2023-05-08T00:47:51.666Z,96382.63
2023-05-08T00:50:55.492Z,96388.81
2023-05-08T00:53:58.919Z,96392.06
2023-05-08T00:57:01.554Z,96382.81
2023-05-08T01:00:05.526Z,96384.50
2023-05-08T01:03:09.507Z,96385.50
2023-05-08T01:06:12.024Z,96387.53
2023-05-08T01:09:13.666Z,96391.41
2023-05-08T01:12:29.758Z,96388.56
2023-05-08T01:15:38.419Z,96381.31
2023-05-08T01:18:49.034Z,96383.34
2023-05-08T01:22:06.057Z,96384.41
2023-05-08T01:25:46.375Z,96381.03
2023-05-08T01:29:20.792Z,96377.69
2023-05-08T01:32:36.444Z,96384.25
2023-05-08T01:35:51.444Z,96385.31
2023-05-08T01:39:22.180Z,96393.91
2023-05-08T01:42:56.382Z,96383.97
2023-05-08T01:46:01.949Z,96394.28
2023-05-08T01:49:30.716Z,96398.84
2023-05-08T01:52:46.775Z,96394.47
2023-05-08T01:55:51.472Z,96404.56
2023-05-08T01:58:57.970Z,96396.88
2023-05-08T02:02:02.440Z,96413.66
2023-05-08T02:05:06.780Z,96411.97
2023-05-08T02:08:11.762Z,96408.66
2023-05-08T02:11:15.435Z,96407.16
2023-05-08T02:14:20.156Z,96409.84
2023-05-08T02:17:24.551Z,96407.50
2023-05-08T02:20:28.684Z,96413.25
2023-05-08T02:23:32.916Z,96418.47
2023-05-08T02:26:36.850Z,96417.63
2023-05-08T02:29:39.855Z,96414.44
2023-05-08T02:32:45.050Z,96414.28
2023-05-08T02:35:49.399Z,96417.31
2023-05-08T02:38:54.661Z,96417.50
2023-05-08T02:41:58.449Z,96418.34
2023-05-08T02:45:00.222Z,96418.53
2023-05-08T02:48:37.174Z,96423.06
2023-05-08T02:51:58.004Z,96410.13
2023-05-08T02:55:07.624Z,96422.25
2023-05-08T02:58:22.317Z,96415.38
2023-05-08T03:01:35.805Z,96413.91
2023-05-08T03:04:44.177Z,96426.50
2023-05-08T03:07:51.734Z,96420.28
2023-05-08T03:10:57.823Z,96417.78
2023-05-08T03:14:02.745Z,96421.66
2023-05-08T03:17:07.592Z,96414.41
2023-05-08T03:20:14.977Z,96416.28
2023-05-08T03:23:20.032Z,96421.84
2023-05-08T03:26:22.723Z,96425.56
2023-05-08T03:29:26.416Z,96417.66
2023-05-08T03:32:33.920Z,96421.53
2023-05-08T03:35:41.524Z,96426.06
2023-05-08T03:38:44.843Z,96426.63
2023-05-08T03:41:47.989Z,96424.09
2023-05-08T03:44:54.151Z,96421.63
2023-05-08T03:48:00.327Z,96420.28
2023-05-08T03:51:03.838Z,96421.28
2023-05-08T03:54:06.642Z,96410.25
2023-05-08T03:57:09.497Z,96423.00
2023-05-08T04:00:48.334Z,96429.78
2023-05-08T04:04:18.166Z,96439.84
2023-05-08T04:07:42.846Z,96436.50
2023-05-08T04:11:11.800Z,96434.19
2023-05-08T04:14:17.147Z,96444.44
2023-05-08T04:17:32.988Z,96446.66
2023-05-08T04:20:36.095Z,96444.97
2023-05-08T04:23:41.457Z,96451.88
2023-05-08T04:26:45.341Z,96455.75
2023-05-08T04:29:48.020Z,96454.25
2023-05-08T04:32:51.461Z,96457.28
2023-05-08T04:35:54.311Z,96460.16
2023-05-08T04:38:59.098Z,96461.16
2023-05-08T04:42:03.909Z,96460.84
2023-05-08T04:45:09.029Z,96475.13
2023-05-08T04:48:10.980Z,96472.44
2023-05-08T04:51:12.758Z,96475.44
2023-05-08T04:54:15.530Z,96477.28
2023-05-08T04:57:17.471Z,96472.44
2023-05-08T05:00:20.176Z,96483.38
2023-05-08T05:03:22.073Z,96486.56
2023-05-08T05:06:24.107Z,96484.22
2023-05-08T05:09:25.944Z,96487.06
2023-05-08T05:12:28.092Z,96492.81
2023-05-08T05:15:30.317Z,96495.50
2023-05-08T05:18:32.000Z,96500.19
2023-05-08T05:21:34.481Z,96494.81
2023-05-08T05:24:36.268Z,96500.34
2023-05-08T05:27:38.622Z,96487.13
2023-05-08T05:30:42.023Z,96507.75
2023-05-08T05:33:44.379Z,96509.41
2023-05-08T05:36:45.932Z,96508.75
2023-05-08T05:39:48.223Z,96513.13
2023-05-08T05:42:51.121Z,96502.72
2023-05-08T05:45:56.010Z,96509.25
2023-05-08T05:48:59.226Z,96508.41
2023-05-08T05:52:01.820Z,96518.16
2023-05-08T05:55:04.810Z,96512.78
2023-05-08T05:58:07.051Z,96519.16
2023-05-08T06:01:10.961Z,96525.56
2023-05-08T06:04:13.160Z,96526.72
2023-05-08T06:07:14.818Z,96526.06
2023-05-08T06:10:16.562Z,96525.53
2023-05-08T06:13:18.315Z,96517.81
2023-05-08T06:16:23.023Z,96524.88
2023-05-08T06:19:25.356Z,96531.22
2023-05-08T06:22:27.517Z,96529.91
2023-05-08T06:25:30.923Z,96528.38
2023-05-08T06:28:32.972Z,96532.22
2023-05-08T06:31:34.638Z,96540.97
2023-05-08T06:34:36.808Z,96542.47
2023-05-08T06:37:38.882Z,96538.75
2023-05-08T06:40:45.037Z,96539.78
2023-05-08T06:43:46.592Z,96534.63
2023-05-08T06:46:48.383Z,96544.34
2023-05-08T06:49:50.344Z,96540.63
2023-05-08T06:52:52.394Z,96542.31
2023-05-08T06:55:54.455Z,96544.16
2023-05-08T06:59:04.964Z,96539.78
2023-05-08T07:02:10.554Z,96545.81
2023-05-08T07:05:13.675Z,96545.81
2023-05-08T07:08:15.962Z,96548.34
2023-05-08T07:11:18.013Z,96554.72
2023-05-08T07:14:19.602Z,96550.34
2023-05-08T07:17:21.883Z,96552.56
2023-05-08T07:20:24.926Z,96551.56
2023-05-08T07:23:27.542Z,96558.56
2023-05-08T07:26:29.629Z,96558.25
2023-05-08T07:29:31.768Z,96553.03
2023-05-08T07:32:34.120Z,96552.88
2023-05-08T07:35:40.929Z,96554.75
2023-05-08T07:38:43.008Z,96554.88
2023-05-08T07:41:47.122Z,96561.28
2023-05-08T07:44:54.765Z,96557.75
2023-05-08T07:47:59.333Z,96560.75
2023-05-08T07:51:02.010Z,96562.28
2023-05-08T07:54:03.678Z,96562.09
2023-05-08T07:57:05.936Z,96569.50
2023-05-08T08:00:09.903Z,96571.84
2023-05-08T08:03:18.704Z,96566.16
2023-05-08T08:06:20.378Z,96564.94
2023-05-08T08:09:22.976Z,96566.81
2023-05-08T08:12:25.011Z,96563.94
2023-05-08T08:15:28.602Z,96560.09
2023-05-08T08:18:31.088Z,96564.09
2023-05-08T08:21:33.148Z,96564.44
2023-05-08T08:24:35.517Z,96555.69
2023-05-08T08:27:37.591Z,96559.53
2023-05-08T08:30:39.597Z,96558.84
2023-05-08T08:33:41.727Z,96566.22
2023-05-08T08:36:44.443Z,96558.66
2023-05-08T08:39:46.100Z,96560.81
2023-05-08T08:42:48.294Z,96562.66
2023-05-08T08:45:50.361Z,96565.84
2023-05-08T08:48:55.932Z,96565.69
2023-05-08T08:52:02.279Z,96557.94
2023-05-08T08:55:08.427Z,96555.94
2023-05-08T08:58:10.579Z,96559.94
2023-05-08T09:01:17.494Z,96550.34
2023-05-08T09:04:19.722Z,96548.34
2023-05-08T09:07:23.053Z,96562.94
2023-05-08T09:10:25.170Z,96561.91
2023-05-08T09:13:26.916Z,96563.44
2023-05-08T09:16:28.769Z,96565.78
2023-05-08T09:19:32.023Z,96568.47
2023-05-08T09:22:36.350Z,96573.16
2023-05-08T09:25:46.189Z,96573.63
2023-05-08T09:28:48.360Z,96575.47
2023-05-08T09:31:52.714Z,96573.63
2023-05-08T09:34:54.912Z,96589.25
2023-05-08T09:37:57.377Z,96582.66
2023-05-08T09:41:11.306Z,96581.47
2023-05-08T09:44:13.344Z,96579.47
2023-05-08T09:47:17.056Z,96573.03
2023-05-08T09:50:20.107Z,96581.06
2023-05-08T09:53:31.179Z,96581.41
2023-05-08T09:56:34.277Z,96584.72
2023-05-08T09:59:36.709Z,96588.44
2023-05-08T10:02:41.376Z,96586.91
2023-05-08T10:05:42.985Z,96581.16
2023-05-08T10:08:46.535Z,96591.53
2023-05-08T10:11:53.606Z,96588.97
2023-05-08T10:14:56.516Z,96594.47
2023-05-08T10:18:07.222Z,96595.59
2023-05-08T10:21:09.323Z,96591.16
2023-05-08T10:24:16.967Z,96596.66
2023-05-08T10:27:28.618Z,96593.44
2023-05-08T10:30:31.996Z,96584.84
2023-05-08T10:33:35.854Z,96586.44
2023-05-08T10:36:38.424Z,96585.72
2023-05-08T10:39:41.793Z,96588.69
2023-05-08T10:42:43.929Z,96597.53
2023-05-08T10:45:46.473Z,96590.75
2023-05-08T10:49:04.610Z,96585.31
2023-05-08T10:52:40.280Z,96582.38
2023-05-08T10:55:45.111Z,96581.66
2023-05-08T10:58:56.422Z,96578.88
2023-05-08T11:02:09.663Z,96575.78
2023-05-08T11:05:16.790Z,96577.94
2023-05-08T11:08:24.744Z,96571.16
2023-05-08T11:11:34.130Z,96562.97
2023-05-08T11:14:39.577Z,96557.84
2023-05-08T11:17:46.710Z,96558.41
2023-05-08T11:21:15.746Z,96558.22
2023-05-08T11:24:17.831Z,96558.47
2023-05-08T11:27:45.756Z,96555.03
2023-05-08T11:30:47.362Z,96551.84
2023-05-08T11:33:49.980Z,96550.50
2023-05-08T11:37:02.194Z,96549.28
2023-05-08T11:40:44.697Z,96542.78
2023-05-08T11:44:15.717Z,96546.81
2023-05-08T11:47:19.320Z,96538.00
2023-05-08T11:50:21.451Z,96540.28
2023-05-08T11:53:23.830Z,96544.28
2023-05-08T11:56:26.557Z,96546.06
2023-05-08T11:59:28.760Z,96545.75
2023-05-08T12:02:41.809Z,96545.78
2023-05-08T12:05:44.166Z,96540.44
2023-05-08T12:08:45.787Z,96537.41
2023-05-08T12:11:47.972Z,96544.16
2023-05-08T12:14:51.284Z,96545.69
2023-05-08T12:18:03.212Z,96537.41
2023-05-08T12:21:05.353Z,96541.81
2023-05-08T12:24:14.376Z,96543.53
2023-05-08T12:27:16.130Z,96546.06
2023-05-08T12:30:18.754Z,96547.34
2023-05-08T12:33:21.773Z,96542.19
2023-05-08T12:36:23.429Z,96542.41
2023-05-08T12:39:26.045Z,96545.56
2023-05-08T12:42:49.216Z,96551.03
2023-05-08T12:45:52.706Z,96545.84
2023-05-08T12:49:01.967Z,96538.56
2023-05-08T12:52:09.856Z,96547.28
2023-05-08T12:55:29.152Z,96539.19
2023-05-08T12:58:33.383Z,96542.09
2023-05-08T13:01:35.852Z,96542.50
2023-05-08T13:04:38.516Z,96538.75
2023-05-08T13:07:40.465Z,96541.47
2023-05-08T13:10:50.326Z,96537.50
2023-05-08T13:13:52.123Z,96527.91
2023-05-08T13:16:53.880Z,96526.06
2023-05-08T13:19:55.747Z,96527.94
2023-05-08T13:22:58.077Z,96528.78
2023-05-08T13:26:00.625Z,96521.69
2023-05-08T13:29:02.444Z,96525.22
2023-05-08T13:32:04.252Z,96523.78
2023-05-08T13:35:06.357Z,96523.13
2023-05-08T13:38:08.499Z,96513.50
2023-05-08T13:41:10.619Z,96511.00
2023-05-08T13:44:12.257Z,96508.91
2023-05-08T13:47:14.407Z,96509.09
2023-05-08T13:50:19.388Z,96511.81
2023-05-08T13:53:21.533Z,96499.50
2023-05-08T13:56:23.238Z,96509.31
2023-05-08T13:59:25.408Z,96512.44
2023-05-08T14:02:27.813Z,96512.63
2023-05-08T14:05:30.023Z,96505.97
2023-05-08T14:08:34.980Z,96503.84
2023-05-08T14:11:36.775Z,96512.59
2023-05-08T14:14:38.497Z,96515.06
2023-05-08T14:17:40.401Z,96516.31
2023-05-08T14:20:42.851Z,96505.69
2023-05-08T14:23:47.295Z,96507.75
2023-05-08T14:26:49.106Z,96506.50
2023-05-08T14:29:50.819Z,96498.56
2023-05-08T14:32:55.082Z,96499.78
2023-05-08T14:35:56.714Z,96497.09
2023-05-08T14:38:58.834Z,96492.09
2023-05-08T14:45:09.475Z,96490.22
2023-05-08T14:48:11.626Z,96493.75
2023-05-08T14:51:14.233Z,96491.88
2023-05-08T14:54:16.150Z,96488.91
2023-05-08T14:57:17.891Z,96492.03
2023-05-08T15:00:21.360Z,96496.81
2023-05-08T15:03:26.330Z,96491.75
2023-05-08T15:06:28.657Z,96498.84
2023-05-08T15:09:30.375Z,96500.47
2023-05-08T15:12:32.345Z,96490.25
2023-05-08T15:15:34.574Z,96499.88
2023-05-08T15:18:36.278Z,96499.63
2023-05-08T15:21:38.430Z,96498.94
2023-05-08T15:24:40.910Z,96505.16
2023-05-08T15:27:42.912Z,96511.16
2023-05-08T15:30:48.333Z,96505.72
2023-05-08T15:33:50.432Z,96515.03
2023-05-08T15:36:52.511Z,96506.53
2023-05-08T15:39:55.050Z,96514.91
2023-05-08T15:42:57.056Z,96508.00
2023-05-08T15:45:59.236Z,96513.88
2023-05-08T15:49:02.699Z,96504.97
2023-05-08T15:52:04.789Z,96502.97
2023-05-08T15:55:06.728Z,96497.91
2023-05-08T15:58:08.354Z,96490.50
2023-05-08T16:01:09.977Z,96486.84
2023-05-08T16:04:13.192Z,96488.34
2023-05-08T16:07:14.794Z,96489.19
2023-05-08T16:10:17.433Z,96485.47
2023-05-08T16:13:19.078Z,96485.53
2023-05-08T16:16:21.402Z,96484.91
2023-05-08T16:19:23.104Z,96490.59
2023-05-08T16:22:26.064Z,96490.44
2023-05-08T16:25:28.331Z,96490.03
2023-05-08T16:28:30.575Z,96488.41
2023-05-08T16:31:32.705Z,96492.16
2023-05-08T16:34:35.306Z,96492.16
2023-05-08T16:37:37.633Z,96495.69
2023-05-08T16:40:39.409Z,96497.56
2023-05-08T16:43:41.054Z,96494.22
2023-05-08T16:46:43.159Z,96486.28
2023-05-08T16:49:45.206Z,96486.94
2023-05-08T16:52:47.372Z,96488.41
2023-05-08T16:55:49.554Z,96487.75
2023-05-08T17:01:55.407Z,96495.22
2023-05-08T17:04:58.241Z,96488.97
2023-05-08T17:08:00.533Z,96494.97
2023-05-08T17:11:02.174Z,96499.94
2023-05-08T17:14:03.789Z,96499.72
2023-05-08T17:17:06.481Z,96496.38
2023-05-08T17:20:08.654Z,96500.94
2023-05-08T17:23:11.371Z,96501.28
2023-05-08T17:26:13.067Z,96506.03
2023-05-08T17:29:15.094Z,96513.75
2023-05-08T17:32:16.716Z,96507.47
2023-05-08T17:35:18.700Z,96517.22
2023-05-08T17:38:22.590Z,96516.34
2023-05-08T17:41:25.224Z,96522.75
2023-05-08T17:44:27.087Z,96517.75
2023-05-08T17:47:28.824Z,96525.44
2023-05-08T17:50:30.577Z,96530.16
2023-05-08T17:53:33.782Z,96532.78
2023-05-08T17:56:35.452Z,96535.22
2023-05-08T17:59:38.101Z,96539.56
2023-05-08T18:02:39.817Z,96537.81
2023-05-08T18:05:42.456Z,96537.13
2023-05-08T18:08:45.865Z,96541.47
2023-05-08T18:11:47.502Z,96548.28
2023-05-08T18:14:49.258Z,96534.09
2023-05-08T18:17:53.446Z,96539.88
2023-05-08T18:20:55.653Z,96535.44
2023-05-08T18:23:57.320Z,96528.50
2023-05-08T18:26:59.631Z,96526.97
2023-05-08T18:30:01.561Z,96530.44
2023-05-08T18:33:03.751Z,96532.91
2023-05-08T18:36:07.228Z,96531.16
2023-05-08T18:39:09.030Z,96533.28
2023-05-08T18:42:10.752Z,96532.38
2023-05-08T18:45:12.543Z,96532.88
2023-05-08T18:48:14.176Z,96529.47
2023-05-08T18:51:15.832Z,96548.88
2023-05-08T18:54:17.956Z,96543.59
2023-05-08T18:57:19.662Z,96549.75
2023-05-08T19:00:21.428Z,96556.91
2023-05-08T19:03:26.946Z,96564.09
2023-05-08T19:06:29.215Z,96560.47
2023-05-08T19:09:30.817Z,96569.28
2023-05-08T19:12:33.523Z,96572.91
2023-05-08T19:15:35.145Z,96570.78
2023-05-08T19:18:37.342Z,96571.53
2023-05-08T19:21:39.418Z,96576.44
2023-05-08T19:24:41.125Z,96578.69
2023-05-08T19:27:42.750Z,96580.00
2023-05-08T19:30:44.877Z,96577.69
2023-05-08T19:33:48.642Z,96570.16
2023-05-08T19:36:51.343Z,96568.69
2023-05-08T19:39:53.035Z,96571.72
2023-05-08T19:42:55.117Z,96568.59
2023-05-08T19:45:57.173Z,96576.34
2023-05-08T19:48:59.544Z,96571.69
2023-05-08T19:52:01.650Z,96572.44
2023-05-08T19:55:03.999Z,96574.63
2023-05-08T19:58:06.209Z,96569.13
2023-05-08T20:01:08.398Z,96573.03
2023-05-08T20:04:10.598Z,96580.63
2023-05-08T20:07:12.702Z,96574.78
2023-05-08T20:10:15.125Z,96574.28
2023-05-08T20:13:17.555Z,96578.22
2023-05-08T20:16:19.296Z,96568.81
2023-05-08T20:19:22.116Z,96582.59
2023-05-08T20:22:23.835Z,96575.06
2023-05-08T20:25:26.008Z,96580.00
2023-05-08T20:28:28.819Z,96576.97
2023-05-08T20:31:30.741Z,96571.13
2023-05-08T20:34:32.752Z,96565.63
2023-05-08T20:37:35.430Z,96566.81
2023-05-08T20:40:37.020Z,96571.72
2023-05-08T20:43:39.092Z,96564.19
2023-05-08T20:46:42.056Z,96564.72
2023-05-08T20:49:44.827Z,96558.19
2023-05-08T20:52:46.575Z,96563.44
2023-05-08T20:55:48.191Z,96560.56
2023-05-08T20:58:49.724Z,96547.19
2023-05-08T21:01:51.808Z,96550.41
2023-05-08T21:04:53.980Z,96553.63
2023-05-08T21:08:02.187Z,96548.59
2023-05-08T21:11:04.441Z,96540.22
2023-05-08T21:14:06.078Z,96535.56
2023-05-08T21:17:07.664Z,96534.22
2023-05-08T21:20:10.342Z,96543.97
2023-05-08T21:23:12.650Z,96540.16
2023-05-08T21:26:14.696Z,96541.69
2023-05-08T21:29:16.271Z,96538.84
2023-05-08T21:32:18.299Z,96545.75
2023-05-08T21:35:20.665Z,96547.78
2023-05-08T21:38:22.732Z,96542.25
2023-05-08T21:41:24.551Z,96535.72
2023-05-08T21:44:26.793Z,96535.56
2023-05-08T21:47:28.504Z,96534.41
2023-05-08T21:50:30.753Z,96531.22
2023-05-08T21:53:33.182Z,96518.84
2023-05-08T21:56:35.278Z,96534.41
2023-05-08T21:59:37.424Z,96523.69
2023-05-08T22:02:39.574Z,96535.75
2023-05-08T22:05:41.743Z,96534.28
2023-05-08T22:08:44.001Z,96530.91
2023-05-08T22:11:45.607Z,96536.97
2023-05-08T22:14:48.198Z,96538.28
2023-05-08T22:17:50.689Z,96537.13
2023-05-08T22:20:52.833Z,96527.06
2023-05-08T22:23:55.409Z,96520.53
2023-05-08T22:26:57.414Z,96538.78
2023-05-08T22:30:01.368Z,96529.41
2023-05-08T22:33:03.772Z,96538.13
2023-05-08T22:36:06.240Z,96528.88
2023-05-08T22:39:10.183Z,96526.03
2023-05-08T22:42:12.250Z,96519.66
2023-05-08T22:45:14.995Z,96523.00
2023-05-08T22:48:16.811Z,96529.69
2023-05-08T22:51:19.272Z,96526.84
2023-05-08T22:54:21.417Z,96528.31
2023-05-08T22:57:22.987Z,96527.13
2023-05-08T23:00:24.536Z,96523.28
2023-05-08T23:03:26.341Z,96517.56
2023-05-08T23:06:27.953Z,96515.38
2023-05-08T23:09:31.046Z,96511.34
2023-05-08T23:12:33.121Z,96511.81
2023-05-08T23:15:36.513Z,96512.31
2023-05-08T23:18:38.916Z,96506.56
2023-05-08T23:21:40.495Z,96510.56
2023-05-08T23:24:43.063Z,96507.69
2023-05-08T23:27:45.164Z,96507.19
2023-05-08T23:30:46.722Z,96516.22
2023-05-08T23:33:48.828Z,96503.31
2023-05-08T23:36:51.217Z,96507.31
2023-05-08T23:39:53.271Z,96503.28
2023-05-08T23:42:54.998Z,96499.38
2023-05-08T23:45:58.302Z,96495.53
2023-05-08T23:49:00.533Z,96496.69
2023-05-08T23:52:02.214Z,96503.34
2023-05-08T23:55:04.452Z,96504.00
2023-05-08T23:58:06.111Z,96503.63
